sensor_id;sensor_type;location;lat;lon;timestamp;P1;durP1;ratioP1;P2;durP2;ratioP2
64225;SDS011;50545;56.064;26.178;2024-02-15T00:01:42;2.75;;;1.70;;
64225;SDS011;50545;56.064;26.178;2024-02-15T00:04:10;4.05;;;1.50;;
64225;SDS011;50545;56.064;26.178;2024-02-15T00:06:38;1.77;;;1.55;;
64225;SDS011;50545;56.064;26.178;2024-02-15T00:09:05;1.42;;;1.27;;
64225;SDS011;50545;56.064;26.178;2024-02-15T00:11:33;1.60;;;1.17;;
64225;SDS011;50545;56.064;26.178;2024-02-15T00:14:00;1.70;;;1.35;;
64225;SDS011;50545;56.064;26.178;2024-02-15T00:16:28;2.72;;;1.30;;
64225;SDS011;50545;56.064;26.178;2024-02-15T00:18:55;2.00;;;1.55;;
64225;SDS011;50545;56.064;26.178;2024-02-15T00:21:23;1.10;;;1.00;;
64225;SDS011;50545;56.064;26.178;2024-02-15T00:23:51;1.45;;;1.35;;
64225;SDS011;50545;56.064;26.178;2024-02-15T00:26:21;2.50;;;1.60;;
64225;SDS011;50545;56.064;26.178;2024-02-15T00:28:48;1.90;;;1.50;;
64225;SDS011;50545;56.064;26.178;2024-02-15T00:31:16;2.05;;;1.50;;
64225;SDS011;50545;56.064;26.178;2024-02-15T00:33:43;1.38;;;0.98;;
64225;SDS011;50545;56.064;26.178;2024-02-15T00:36:11;2.83;;;1.58;;
64225;SDS011;50545;56.064;26.178;2024-02-15T00:38:40;1.67;;;1.40;;
64225;SDS011;50545;56.064;26.178;2024-02-15T00:41:09;2.40;;;1.40;;
64225;SDS011;50545;56.064;26.178;2024-02-15T00:43:37;1.50;;;1.23;;
64225;SDS011;50545;56.064;26.178;2024-02-15T00:46:05;2.42;;;1.65;;
64225;SDS011;50545;56.064;26.178;2024-02-15T00:48:32;1.48;;;1.25;;
64225;SDS011;50545;56.064;26.178;2024-02-15T00:51:00;2.08;;;1.70;;
64225;SDS011;50545;56.064;26.178;2024-02-15T00:53:28;1.90;;;1.58;;
64225;SDS011;50545;56.064;26.178;2024-02-15T00:55:55;1.27;;;1.17;;
64225;SDS011;50545;56.064;26.178;2024-02-15T00:58:23;2.08;;;1.50;;
64225;SDS011;50545;56.064;26.178;2024-02-15T01:00:51;1.10;;;1.00;;
64225;SDS011;50545;56.064;26.178;2024-02-15T01:03:18;1.52;;;1.30;;
64225;SDS011;50545;56.064;26.178;2024-02-15T01:05:46;1.73;;;1.20;;
64225;SDS011;50545;56.064;26.178;2024-02-15T01:08:14;2.10;;;1.30;;
64225;SDS011;50545;56.064;26.178;2024-02-15T01:10:41;1.45;;;1.33;;
64225;SDS011;50545;56.064;26.178;2024-02-15T01:13:09;1.88;;;1.35;;
64225;SDS011;50545;56.064;26.178;2024-02-15T01:15:36;1.10;;;0.90;;
64225;SDS011;50545;56.064;26.178;2024-02-15T01:18:06;1.10;;;1.00;;
64225;SDS011;50545;56.064;26.178;2024-02-15T01:20:33;1.40;;;1.30;;
64225;SDS011;50545;56.064;26.178;2024-02-15T01:23:01;2.13;;;1.27;;
64225;SDS011;50545;56.064;26.178;2024-02-15T01:25:29;2.53;;;1.40;;
64225;SDS011;50545;56.064;26.178;2024-02-15T01:27:57;2.50;;;1.60;;
64225;SDS011;50545;56.064;26.178;2024-02-15T01:30:24;2.63;;;1.67;;
64225;SDS011;50545;56.064;26.178;2024-02-15T01:32:52;2.22;;;1.55;;
64225;SDS011;50545;56.064;26.178;2024-02-15T01:35:19;2.15;;;1.40;;
64225;SDS011;50545;56.064;26.178;2024-02-15T01:37:47;2.33;;;1.48;;
64225;SDS011;50545;56.064;26.178;2024-02-15T01:40:14;2.10;;;1.20;;
64225;SDS011;50545;56.064;26.178;2024-02-15T01:42:46;1.35;;;1.10;;
64225;SDS011;50545;56.064;26.178;2024-02-15T01:45:16;1.40;;;1.02;;
64225;SDS011;50545;56.064;26.178;2024-02-15T01:47:43;1.45;;;1.27;;
64225;SDS011;50545;56.064;26.178;2024-02-15T01:50:11;2.13;;;1.40;;
64225;SDS011;50545;56.064;26.178;2024-02-15T01:52:40;2.38;;;1.08;;
64225;SDS011;50545;56.064;26.178;2024-02-15T01:55:10;0.77;;;0.77;;
64225;SDS011;50545;56.064;26.178;2024-02-15T01:57:38;1.08;;;1.05;;
64225;SDS011;50545;56.064;26.178;2024-02-15T02:00:06;1.17;;;1.08;;
64225;SDS011;50545;56.064;26.178;2024-02-15T02:02:37;1.17;;;1.08;;
64225;SDS011;50545;56.064;26.178;2024-02-15T02:05:08;2.00;;;1.38;;
64225;SDS011;50545;56.064;26.178;2024-02-15T02:07:36;1.90;;;1.30;;
64225;SDS011;50545;56.064;26.178;2024-02-15T02:10:04;2.30;;;1.25;;
64225;SDS011;50545;56.064;26.178;2024-02-15T02:12:35;2.47;;;1.35;;
64225;SDS011;50545;56.064;26.178;2024-02-15T02:15:03;2.63;;;1.42;;
64225;SDS011;50545;56.064;26.178;2024-02-15T02:17:31;1.98;;;1.33;;
64225;SDS011;50545;56.064;26.178;2024-02-15T02:20:01;2.05;;;1.45;;
64225;SDS011;50545;56.064;26.178;2024-02-15T02:22:35;1.40;;;1.10;;
64225;SDS011;50545;56.064;26.178;2024-02-15T02:25:05;2.22;;;1.60;;
64225;SDS011;50545;56.064;26.178;2024-02-15T02:27:35;2.10;;;1.40;;
64225;SDS011;50545;56.064;26.178;2024-02-15T02:30:04;1.60;;;1.50;;
64225;SDS011;50545;56.064;26.178;2024-02-15T02:32:36;2.53;;;1.55;;
64225;SDS011;50545;56.064;26.178;2024-02-15T02:35:05;1.45;;;1.33;;
64225;SDS011;50545;56.064;26.178;2024-02-15T02:37:34;1.98;;;1.33;;
64225;SDS011;50545;56.064;26.178;2024-02-15T02:40:04;1.85;;;1.50;;
64225;SDS011;50545;56.064;26.178;2024-02-15T02:42:36;1.90;;;1.08;;
64225;SDS011;50545;56.064;26.178;2024-02-15T02:45:12;1.63;;;1.35;;
64225;SDS011;50545;56.064;26.178;2024-02-15T02:47:40;1.58;;;1.13;;
64225;SDS011;50545;56.064;26.178;2024-02-15T02:50:08;2.00;;;1.30;;
64225;SDS011;50545;56.064;26.178;2024-02-15T02:52:35;1.42;;;1.13;;
64225;SDS011;50545;56.064;26.178;2024-02-15T02:55:06;1.00;;;0.93;;
64225;SDS011;50545;56.064;26.178;2024-02-15T02:57:35;2.33;;;1.42;;
64225;SDS011;50545;56.064;26.178;2024-02-15T03:00:04;1.55;;;1.20;;
64225;SDS011;50545;56.064;26.178;2024-02-15T03:02:40;2.83;;;1.48;;
64225;SDS011;50545;56.064;26.178;2024-02-15T03:05:07;1.95;;;1.40;;
64225;SDS011;50545;56.064;26.178;2024-02-15T03:07:35;2.70;;;1.42;;
64225;SDS011;50545;56.064;26.178;2024-02-15T03:10:04;3.08;;;1.83;;
64225;SDS011;50545;56.064;26.178;2024-02-15T03:12:38;2.20;;;1.10;;
64225;SDS011;50545;56.064;26.178;2024-02-15T03:15:06;1.90;;;1.48;;
64225;SDS011;50545;56.064;26.178;2024-02-15T03:17:41;1.63;;;1.20;;
64225;SDS011;50545;56.064;26.178;2024-02-15T03:20:10;2.20;;;1.42;;
64225;SDS011;50545;56.064;26.178;2024-02-15T03:22:44;2.83;;;1.30;;
64225;SDS011;50545;56.064;26.178;2024-02-15T03:25:11;1.73;;;1.25;;
64225;SDS011;50545;56.064;26.178;2024-02-15T03:27:39;1.23;;;1.13;;
64225;SDS011;50545;56.064;26.178;2024-02-15T03:30:07;2.92;;;1.00;;
64225;SDS011;50545;56.064;26.178;2024-02-15T03:32:34;0.85;;;0.70;;
64225;SDS011;50545;56.064;26.178;2024-02-15T03:35:02;2.33;;;1.40;;
64225;SDS011;50545;56.064;26.178;2024-02-15T03:37:30;1.48;;;1.30;;
64225;SDS011;50545;56.064;26.178;2024-02-15T03:40:00;1.48;;;1.25;;
64225;SDS011;50545;56.064;26.178;2024-02-15T03:42:27;1.42;;;1.13;;
64225;SDS011;50545;56.064;26.178;2024-02-15T03:44:55;1.70;;;1.20;;
64225;SDS011;50545;56.064;26.178;2024-02-15T03:47:23;1.30;;;1.20;;
64225;SDS011;50545;56.064;26.178;2024-02-15T03:49:50;1.83;;;1.27;;
64225;SDS011;50545;56.064;26.178;2024-02-15T03:52:18;2.17;;;1.27;;
64225;SDS011;50545;56.064;26.178;2024-02-15T03:54:46;2.00;;;1.40;;
64225;SDS011;50545;56.064;26.178;2024-02-15T03:57:13;3.38;;;1.60;;
64225;SDS011;50545;56.064;26.178;2024-02-15T03:59:43;1.77;;;1.42;;
64225;SDS011;50545;56.064;26.178;2024-02-15T04:02:12;1.60;;;1.23;;
64225;SDS011;50545;56.064;26.178;2024-02-15T04:04:41;1.00;;;0.90;;
64225;SDS011;50545;56.064;26.178;2024-02-15T04:07:09;0.88;;;0.88;;
64225;SDS011;50545;56.064;26.178;2024-02-15T04:09:38;0.63;;;0.63;;
64225;SDS011;50545;56.064;26.178;2024-02-15T04:12:06;1.38;;;1.15;;
64225;SDS011;50545;56.064;26.178;2024-02-15T04:14:34;0.93;;;0.82;;
64225;SDS011;50545;56.064;26.178;2024-02-15T04:17:01;0.68;;;0.68;;
64225;SDS011;50545;56.064;26.178;2024-02-15T04:19:29;1.15;;;0.73;;
64225;SDS011;50545;56.064;26.178;2024-02-15T04:22:00;1.27;;;1.00;;
64225;SDS011;50545;56.064;26.178;2024-02-15T04:24:31;1.60;;;0.93;;
64225;SDS011;50545;56.064;26.178;2024-02-15T04:26:58;0.63;;;0.63;;
64225;SDS011;50545;56.064;26.178;2024-02-15T04:29:26;0.93;;;0.80;;
64225;SDS011;50545;56.064;26.178;2024-02-15T04:31:53;1.52;;;1.20;;
64225;SDS011;50545;56.064;26.178;2024-02-15T04:34:21;1.08;;;0.98;;
64225;SDS011;50545;56.064;26.178;2024-02-15T04:36:49;1.23;;;1.00;;
64225;SDS011;50545;56.064;26.178;2024-02-15T04:39:17;1.55;;;0.98;;
64225;SDS011;50545;56.064;26.178;2024-02-15T04:41:51;1.02;;;0.93;;
64225;SDS011;50545;56.064;26.178;2024-02-15T04:44:19;1.00;;;0.90;;
64225;SDS011;50545;56.064;26.178;2024-02-15T04:46:54;1.38;;;1.08;;
64225;SDS011;50545;56.064;26.178;2024-02-15T04:49:22;1.17;;;1.10;;
64225;SDS011;50545;56.064;26.178;2024-02-15T04:51:50;0.80;;;0.73;;
64225;SDS011;50545;56.064;26.178;2024-02-15T04:54:18;1.05;;;0.95;;
64225;SDS011;50545;56.064;26.178;2024-02-15T04:56:45;1.23;;;1.08;;
64225;SDS011;50545;56.064;26.178;2024-02-15T04:59:13;1.35;;;1.10;;
64225;SDS011;50545;56.064;26.178;2024-02-15T05:01:44;2.28;;;1.40;;
64225;SDS011;50545;56.064;26.178;2024-02-15T05:04:12;2.55;;;1.48;;
64225;SDS011;50545;56.064;26.178;2024-02-15T05:06:40;9.63;;;4.22;;
64225;SDS011;50545;56.064;26.178;2024-02-15T05:09:08;6.82;;;3.55;;
64225;SDS011;50545;56.064;26.178;2024-02-15T05:11:37;3.47;;;2.28;;
64225;SDS011;50545;56.064;26.178;2024-02-15T05:14:08;1.90;;;1.27;;
64225;SDS011;50545;56.064;26.178;2024-02-15T05:16:37;2.25;;;1.00;;
64225;SDS011;50545;56.064;26.178;2024-02-15T05:19:09;0.73;;;0.73;;
64225;SDS011;50545;56.064;26.178;2024-02-15T05:24:07;0.35;;;0.32;;
64225;SDS011;50545;56.064;26.178;2024-02-15T05:26:35;0.77;;;0.75;;
64225;SDS011;50545;56.064;26.178;2024-02-15T05:29:02;0.65;;;0.60;;
64225;SDS011;50545;56.064;26.178;2024-02-15T05:31:31;0.63;;;0.63;;
64225;SDS011;50545;56.064;26.178;2024-02-15T05:34:01;0.37;;;0.37;;
64225;SDS011;50545;56.064;26.178;2024-02-15T05:36:29;1.02;;;0.82;;
64225;SDS011;50545;56.064;26.178;2024-02-15T05:38:57;0.60;;;0.60;;
64225;SDS011;50545;56.064;26.178;2024-02-15T05:41:25;1.05;;;0.95;;
64225;SDS011;50545;56.064;26.178;2024-02-15T05:43:52;1.35;;;1.05;;
64225;SDS011;50545;56.064;26.178;2024-02-15T05:46:20;0.70;;;0.70;;
64225;SDS011;50545;56.064;26.178;2024-02-15T05:48:48;0.63;;;0.63;;
64225;SDS011;50545;56.064;26.178;2024-02-15T05:51:15;0.93;;;0.85;;
64225;SDS011;50545;56.064;26.178;2024-02-15T05:53:43;1.30;;;1.00;;
64225;SDS011;50545;56.064;26.178;2024-02-15T05:56:11;1.05;;;0.93;;
64225;SDS011;50545;56.064;26.178;2024-02-15T05:58:40;1.10;;;0.95;;
64225;SDS011;50545;56.064;26.178;2024-02-15T06:01:07;1.20;;;1.10;;
64225;SDS011;50545;56.064;26.178;2024-02-15T06:03:37;0.75;;;0.75;;
64225;SDS011;50545;56.064;26.178;2024-02-15T06:06:07;1.88;;;1.15;;
64225;SDS011;50545;56.064;26.178;2024-02-15T06:08:36;0.85;;;0.85;;
64225;SDS011;50545;56.064;26.178;2024-02-15T06:11:04;1.13;;;0.77;;
64225;SDS011;50545;56.064;26.178;2024-02-15T06:13:36;0.75;;;0.65;;
64225;SDS011;50545;56.064;26.178;2024-02-15T06:16:04;1.63;;;1.33;;
64225;SDS011;50545;56.064;26.178;2024-02-15T06:18:35;0.50;;;0.50;;
64225;SDS011;50545;56.064;26.178;2024-02-15T06:21:04;1.15;;;0.95;;
64225;SDS011;50545;56.064;26.178;2024-02-15T06:23:32;1.05;;;0.95;;
64225;SDS011;50545;56.064;26.178;2024-02-15T06:26:00;1.50;;;1.23;;
64225;SDS011;50545;56.064;26.178;2024-02-15T06:28:29;0.82;;;0.80;;
64225;SDS011;50545;56.064;26.178;2024-02-15T06:31:15;1.13;;;0.95;;
64225;SDS011;50545;56.064;26.178;2024-02-15T06:34:01;2.45;;;1.23;;
64225;SDS011;50545;56.064;26.178;2024-02-15T06:37:06;1.38;;;0.90;;
64225;SDS011;50545;56.064;26.178;2024-02-15T06:39:52;0.88;;;0.70;;
64225;SDS011;50545;56.064;26.178;2024-02-15T06:42:20;0.80;;;0.80;;
64225;SDS011;50545;56.064;26.178;2024-02-15T06:44:48;1.20;;;1.10;;
64225;SDS011;50545;56.064;26.178;2024-02-15T06:47:15;0.80;;;0.80;;
64225;SDS011;50545;56.064;26.178;2024-02-15T06:49:46;0.65;;;0.65;;
64225;SDS011;50545;56.064;26.178;2024-02-15T06:52:17;0.47;;;0.47;;
64225;SDS011;50545;56.064;26.178;2024-02-15T06:54:44;1.48;;;1.05;;
64225;SDS011;50545;56.064;26.178;2024-02-15T06:57:12;0.30;;;0.30;;
64225;SDS011;50545;56.064;26.178;2024-02-15T06:59:40;1.00;;;0.90;;
64225;SDS011;50545;56.064;26.178;2024-02-15T07:02:07;1.48;;;0.75;;
64225;SDS011;50545;56.064;26.178;2024-02-15T07:04:35;1.08;;;0.98;;
64225;SDS011;50545;56.064;26.178;2024-02-15T07:07:03;1.52;;;1.33;;
64225;SDS011;50545;56.064;26.178;2024-02-15T07:09:31;2.50;;;1.75;;
64225;SDS011;50545;56.064;26.178;2024-02-15T07:11:59;2.08;;;1.67;;
64225;SDS011;50545;56.064;26.178;2024-02-15T07:14:27;2.13;;;1.38;;
64225;SDS011;50545;56.064;26.178;2024-02-15T07:16:55;0.93;;;0.75;;
64225;SDS011;50545;56.064;26.178;2024-02-15T07:19:25;3.22;;;1.90;;
64225;SDS011;50545;56.064;26.178;2024-02-15T07:21:54;1.65;;;1.20;;
64225;SDS011;50545;56.064;26.178;2024-02-15T07:24:23;3.53;;;1.67;;
64225;SDS011;50545;56.064;26.178;2024-02-15T07:26:54;1.77;;;1.35;;
64225;SDS011;50545;56.064;26.178;2024-02-15T07:31:52;2.80;;;1.73;;
64225;SDS011;50545;56.064;26.178;2024-02-15T07:34:20;2.90;;;1.83;;
64225;SDS011;50545;56.064;26.178;2024-02-15T07:36:49;2.25;;;1.55;;
64225;SDS011;50545;56.064;26.178;2024-02-15T07:39:17;3.58;;;2.00;;
64225;SDS011;50545;56.064;26.178;2024-02-15T07:41:52;5.03;;;2.40;;
64225;SDS011;50545;56.064;26.178;2024-02-15T07:44:19;4.43;;;2.55;;
64225;SDS011;50545;56.064;26.178;2024-02-15T07:46:49;5.20;;;2.60;;
64225;SDS011;50545;56.064;26.178;2024-02-15T07:49:18;2.65;;;1.75;;
64225;SDS011;50545;56.064;26.178;2024-02-15T07:51:48;3.45;;;1.92;;
64225;SDS011;50545;56.064;26.178;2024-02-15T07:54:20;3.95;;;1.77;;
64225;SDS011;50545;56.064;26.178;2024-02-15T07:56:48;3.28;;;1.70;;
64225;SDS011;50545;56.064;26.178;2024-02-15T07:59:16;2.80;;;1.77;;
64225;SDS011;50545;56.064;26.178;2024-02-15T08:01:43;2.85;;;1.77;;
64225;SDS011;50545;56.064;26.178;2024-02-15T08:04:13;3.25;;;1.88;;
64225;SDS011;50545;56.064;26.178;2024-02-15T08:06:43;4.20;;;2.33;;
64225;SDS011;50545;56.064;26.178;2024-02-15T08:09:11;2.42;;;1.70;;
64225;SDS011;50545;56.064;26.178;2024-02-15T08:11:41;2.50;;;1.55;;
64225;SDS011;50545;56.064;26.178;2024-02-15T08:14:09;3.75;;;1.92;;
64225;SDS011;50545;56.064;26.178;2024-02-15T08:19:10;1.92;;;1.17;;
64225;SDS011;50545;56.064;26.178;2024-02-15T08:21:38;1.35;;;0.85;;
64225;SDS011;50545;56.064;26.178;2024-02-15T08:24:08;2.70;;;1.60;;
64225;SDS011;50545;56.064;26.178;2024-02-15T08:26:36;3.50;;;2.03;;
64225;SDS011;50545;56.064;26.178;2024-02-15T08:29:10;2.70;;;1.77;;
64225;SDS011;50545;56.064;26.178;2024-02-15T08:31:40;1.77;;;1.55;;
64225;SDS011;50545;56.064;26.178;2024-02-15T08:34:08;3.92;;;1.95;;
64225;SDS011;50545;56.064;26.178;2024-02-15T08:36:40;3.50;;;1.73;;
64225;SDS011;50545;56.064;26.178;2024-02-15T08:39:07;2.42;;;1.58;;
64225;SDS011;50545;56.064;26.178;2024-02-15T08:41:39;2.88;;;1.42;;
64225;SDS011;50545;56.064;26.178;2024-02-15T08:44:07;1.90;;;1.60;;
64225;SDS011;50545;56.064;26.178;2024-02-15T08:46:38;1.65;;;1.33;;
64225;SDS011;50545;56.064;26.178;2024-02-15T08:49:06;2.00;;;0.82;;
64225;SDS011;50545;56.064;26.178;2024-02-15T08:51:33;4.32;;;1.88;;
64225;SDS011;50545;56.064;26.178;2024-02-15T08:54:01;2.25;;;1.23;;
64225;SDS011;50545;56.064;26.178;2024-02-15T08:56:28;2.38;;;1.50;;
64225;SDS011;50545;56.064;26.178;2024-02-15T08:58:56;1.65;;;1.27;;
64225;SDS011;50545;56.064;26.178;2024-02-15T09:01:28;2.35;;;1.20;;
64225;SDS011;50545;56.064;26.178;2024-02-15T09:03:57;2.42;;;0.90;;
64225;SDS011;50545;56.064;26.178;2024-02-15T09:06:25;2.92;;;1.23;;
64225;SDS011;50545;56.064;26.178;2024-02-15T09:08:53;1.50;;;1.23;;
64225;SDS011;50545;56.064;26.178;2024-02-15T09:11:20;2.83;;;1.00;;
64225;SDS011;50545;56.064;26.178;2024-02-15T09:13:50;1.65;;;0.95;;
64225;SDS011;50545;56.064;26.178;2024-02-15T09:16:18;0.70;;;0.70;;
64225;SDS011;50545;56.064;26.178;2024-02-15T09:18:48;1.17;;;1.08;;
64225;SDS011;50545;56.064;26.178;2024-02-15T09:21:16;0.55;;;0.55;;
64225;SDS011;50545;56.064;26.178;2024-02-15T09:23:43;0.50;;;0.40;;
64225;SDS011;50545;56.064;26.178;2024-02-15T09:26:11;1.25;;;0.82;;
64225;SDS011;50545;56.064;26.178;2024-02-15T09:28:39;1.55;;;0.75;;
64225;SDS011;50545;56.064;26.178;2024-02-15T09:31:07;0.22;;;0.22;;
64225;SDS011;50545;56.064;26.178;2024-02-15T09:33:38;0.63;;;0.63;;
64225;SDS011;50545;56.064;26.178;2024-02-15T09:36:06;1.25;;;1.10;;
64225;SDS011;50545;56.064;26.178;2024-02-15T09:38:34;2.55;;;1.63;;
64225;SDS011;50545;56.064;26.178;2024-02-15T09:41:02;1.75;;;0.98;;
64225;SDS011;50545;56.064;26.178;2024-02-15T09:43:34;1.98;;;0.63;;
64225;SDS011;50545;56.064;26.178;2024-02-15T09:46:02;2.30;;;1.30;;
64225;SDS011;50545;56.064;26.178;2024-02-15T09:48:31;1.50;;;1.15;;
64225;SDS011;50545;56.064;26.178;2024-02-15T09:51:01;4.63;;;2.05;;
64225;SDS011;50545;56.064;26.178;2024-02-15T09:53:29;0.40;;;0.40;;
64225;SDS011;50545;56.064;26.178;2024-02-15T09:55:58;0.60;;;0.60;;
64225;SDS011;50545;56.064;26.178;2024-02-15T09:58:31;1.10;;;1.00;;
64225;SDS011;50545;56.064;26.178;2024-02-15T10:03:37;1.05;;;0.93;;
64225;SDS011;50545;56.064;26.178;2024-02-15T10:06:07;2.17;;;1.30;;
64225;SDS011;50545;56.064;26.178;2024-02-15T10:08:35;2.50;;;1.70;;
64225;SDS011;50545;56.064;26.178;2024-02-15T10:11:07;1.00;;;0.93;;
64225;SDS011;50545;56.064;26.178;2024-02-15T10:13:37;0.85;;;0.82;;
64225;SDS011;50545;56.064;26.178;2024-02-15T10:16:18;1.40;;;1.02;;
64225;SDS011;50545;56.064;26.178;2024-02-15T10:18:47;4.72;;;1.35;;
64225;SDS011;50545;56.064;26.178;2024-02-15T10:21:27;1.38;;;0.90;;
64225;SDS011;50545;56.064;26.178;2024-02-15T10:24:09;2.33;;;1.40;;
64225;SDS011;50545;56.064;26.178;2024-02-15T10:26:36;3.58;;;1.52;;
64225;SDS011;50545;56.064;26.178;2024-02-15T10:29:05;1.65;;;1.23;;
64225;SDS011;50545;56.064;26.178;2024-02-15T10:31:38;1.38;;;1.23;;
64225;SDS011;50545;56.064;26.178;2024-02-15T10:34:08;4.28;;;1.08;;
64225;SDS011;50545;56.064;26.178;2024-02-15T10:36:37;0.73;;;0.70;;
64225;SDS011;50545;56.064;26.178;2024-02-15T10:39:11;1.70;;;1.30;;
64225;SDS011;50545;56.064;26.178;2024-02-15T10:41:49;1.58;;;1.10;;
64225;SDS011;50545;56.064;26.178;2024-02-15T10:44:18;1.97;;;1.30;;
64225;SDS011;50545;56.064;26.178;2024-02-15T10:46:47;0.80;;;0.80;;
64225;SDS011;50545;56.064;26.178;2024-02-15T10:49:18;2.20;;;1.70;;
64225;SDS011;50545;56.064;26.178;2024-02-15T10:51:59;1.35;;;1.15;;
64225;SDS011;50545;56.064;26.178;2024-02-15T10:55:13;1.55;;;1.17;;
64225;SDS011;50545;56.064;26.178;2024-02-15T10:57:37;1.00;;;0.95;;
64225;SDS011;50545;56.064;26.178;2024-02-15T11:00:13;1.25;;;1.15;;
64225;SDS011;50545;56.064;26.178;2024-02-15T11:05:24;1.63;;;1.30;;
64225;SDS011;50545;56.064;26.178;2024-02-15T11:07:52;1.02;;;0.60;;
64225;SDS011;50545;56.064;26.178;2024-02-15T11:10:22;1.75;;;0.70;;
64225;SDS011;50545;56.064;26.178;2024-02-15T11:12:50;1.80;;;1.30;;
64225;SDS011;50545;56.064;26.178;2024-02-15T11:18:12;2.65;;;1.25;;
64225;SDS011;50545;56.064;26.178;2024-02-15T11:23:07;2.33;;;1.58;;
64225;SDS011;50545;56.064;26.178;2024-02-15T11:25:42;1.95;;;1.45;;
64225;SDS011;50545;56.064;26.178;2024-02-15T11:30:50;0.57;;;0.57;;
64225;SDS011;50545;56.064;26.178;2024-02-15T11:33:33;2.17;;;1.40;;
64225;SDS011;50545;56.064;26.178;2024-02-15T11:38:39;1.90;;;1.40;;
64225;SDS011;50545;56.064;26.178;2024-02-15T11:41:08;2.50;;;1.33;;
64225;SDS011;50545;56.064;26.178;2024-02-15T11:46:17;1.75;;;1.35;;
64225;SDS011;50545;56.064;26.178;2024-02-15T11:48:46;1.20;;;0.95;;
64225;SDS011;50545;56.064;26.178;2024-02-15T11:51:34;0.95;;;0.93;;
64225;SDS011;50545;56.064;26.178;2024-02-15T11:54:10;1.00;;;0.90;;
64225;SDS011;50545;56.064;26.178;2024-02-15T11:59:18;1.10;;;1.00;;
64225;SDS011;50545;56.064;26.178;2024-02-15T12:01:56;1.25;;;1.08;;
64225;SDS011;50545;56.064;26.178;2024-02-15T12:04:43;0.82;;;0.82;;
64225;SDS011;50545;56.064;26.178;2024-02-15T12:07:30;2.15;;;1.15;;
64225;SDS011;50545;56.064;26.178;2024-02-15T12:10:17;1.85;;;1.30;;
64225;SDS011;50545;56.064;26.178;2024-02-15T12:13:03;0.80;;;0.80;;
64225;SDS011;50545;56.064;26.178;2024-02-15T12:15:56;1.05;;;0.90;;
64225;SDS011;50545;56.064;26.178;2024-02-15T12:18:45;0.52;;;0.52;;
64225;SDS011;50545;56.064;26.178;2024-02-15T12:21:16;0.60;;;0.60;;
64225;SDS011;50545;56.064;26.178;2024-02-15T12:23:47;1.48;;;0.88;;
64225;SDS011;50545;56.064;26.178;2024-02-15T12:26:19;3.30;;;1.35;;
64225;SDS011;50545;56.064;26.178;2024-02-15T12:28:50;1.55;;;1.02;;
64225;SDS011;50545;56.064;26.178;2024-02-15T12:31:22;1.92;;;1.33;;
64225;SDS011;50545;56.064;26.178;2024-02-15T12:33:59;1.38;;;0.95;;
64225;SDS011;50545;56.064;26.178;2024-02-15T12:36:28;0.80;;;0.80;;
64225;SDS011;50545;56.064;26.178;2024-02-15T12:39:02;1.85;;;1.05;;
64225;SDS011;50545;56.064;26.178;2024-02-15T12:41:38;0.82;;;0.50;;
64225;SDS011;50545;56.064;26.178;2024-02-15T12:44:09;0.70;;;0.70;;
64225;SDS011;50545;56.064;26.178;2024-02-15T12:46:40;1.00;;;0.55;;
64225;SDS011;50545;56.064;26.178;2024-02-15T12:49:08;0.68;;;0.60;;
64225;SDS011;50545;56.064;26.178;2024-02-15T12:52:32;0.68;;;0.68;;
64225;SDS011;50545;56.064;26.178;2024-02-15T12:55:08;0.80;;;0.50;;
64225;SDS011;50545;56.064;26.178;2024-02-15T12:57:35;1.20;;;0.80;;
64225;SDS011;50545;56.064;26.178;2024-02-15T13:00:03;0.90;;;0.90;;
64225;SDS011;50545;56.064;26.178;2024-02-15T13:02:38;1.13;;;0.82;;
64225;SDS011;50545;56.064;26.178;2024-02-15T13:05:06;1.83;;;0.85;;
64225;SDS011;50545;56.064;26.178;2024-02-15T13:10:04;0.57;;;0.47;;
64225;SDS011;50545;56.064;26.178;2024-02-15T13:12:35;0.95;;;0.80;;
64225;SDS011;50545;56.064;26.178;2024-02-15T13:15:04;1.02;;;0.85;;
64225;SDS011;50545;56.064;26.178;2024-02-15T13:17:34;1.02;;;0.77;;
64225;SDS011;50545;56.064;26.178;2024-02-15T13:20:01;0.77;;;0.63;;
64225;SDS011;50545;56.064;26.178;2024-02-15T13:22:37;1.17;;;0.85;;
64225;SDS011;50545;56.064;26.178;2024-02-15T13:25:06;0.43;;;0.43;;
64225;SDS011;50545;56.064;26.178;2024-02-15T13:27:37;0.60;;;0.60;;
64225;SDS011;50545;56.064;26.178;2024-02-15T13:30:05;1.10;;;0.82;;
64225;SDS011;50545;56.064;26.178;2024-02-15T13:32:38;0.70;;;0.70;;
64225;SDS011;50545;56.064;26.178;2024-02-15T13:35:10;0.80;;;0.80;;
64225;SDS011;50545;56.064;26.178;2024-02-15T13:37:46;0.88;;;0.77;;
64225;SDS011;50545;56.064;26.178;2024-02-15T13:40:16;0.68;;;0.68;;
64225;SDS011;50545;56.064;26.178;2024-02-15T13:42:44;0.75;;;0.75;;
64225;SDS011;50545;56.064;26.178;2024-02-15T13:45:16;0.82;;;0.60;;
64225;SDS011;50545;56.064;26.178;2024-02-15T13:47:45;0.98;;;0.88;;
64225;SDS011;50545;56.064;26.178;2024-02-15T13:50:14;0.40;;;0.40;;
64225;SDS011;50545;56.064;26.178;2024-02-15T13:52:42;0.75;;;0.73;;
64225;SDS011;50545;56.064;26.178;2024-02-15T13:55:11;0.57;;;0.57;;
64225;SDS011;50545;56.064;26.178;2024-02-15T13:57:45;0.55;;;0.55;;
64225;SDS011;50545;56.064;26.178;2024-02-15T14:00:14;0.82;;;0.75;;
64225;SDS011;50545;56.064;26.178;2024-02-15T14:02:49;0.50;;;0.50;;
64225;SDS011;50545;56.064;26.178;2024-02-15T14:05:17;0.65;;;0.65;;
64225;SDS011;50545;56.064;26.178;2024-02-15T14:07:51;0.73;;;0.55;;
64225;SDS011;50545;56.064;26.178;2024-02-15T14:10:22;0.52;;;0.45;;
64225;SDS011;50545;56.064;26.178;2024-02-15T14:12:51;0.57;;;0.57;;
64225;SDS011;50545;56.064;26.178;2024-02-15T14:15:19;2.55;;;0.95;;
64225;SDS011;50545;56.064;26.178;2024-02-15T14:17:49;0.80;;;0.80;;
64225;SDS011;50545;56.064;26.178;2024-02-15T14:20:16;0.65;;;0.55;;
64225;SDS011;50545;56.064;26.178;2024-02-15T14:22:46;0.50;;;0.45;;
64225;SDS011;50545;56.064;26.178;2024-02-15T14:25:23;0.38;;;0.38;;
64225;SDS011;50545;56.064;26.178;2024-02-15T14:27:58;1.23;;;0.82;;
64225;SDS011;50545;56.064;26.178;2024-02-15T14:30:25;0.73;;;0.70;;
64225;SDS011;50545;56.064;26.178;2024-02-15T14:33:12;0.52;;;0.52;;
64225;SDS011;50545;56.064;26.178;2024-02-15T14:35:45;0.50;;;0.50;;
64225;SDS011;50545;56.064;26.178;2024-02-15T14:38:13;0.80;;;0.80;;
64225;SDS011;50545;56.064;26.178;2024-02-15T14:40:43;0.93;;;0.80;;
64225;SDS011;50545;56.064;26.178;2024-02-15T14:43:19;0.70;;;0.70;;
64225;SDS011;50545;56.064;26.178;2024-02-15T14:45:48;1.17;;;1.08;;
64225;SDS011;50545;56.064;26.178;2024-02-15T14:48:16;1.00;;;0.63;;
64225;SDS011;50545;56.064;26.178;2024-02-15T14:50:48;1.38;;;1.20;;
64225;SDS011;50545;56.064;26.178;2024-02-15T14:53:18;2.08;;;1.10;;
64225;SDS011;50545;56.064;26.178;2024-02-15T14:55:46;1.65;;;1.20;;
64225;SDS011;50545;56.064;26.178;2024-02-15T14:58:13;1.00;;;0.90;;
64225;SDS011;50545;56.064;26.178;2024-02-15T15:03:13;0.57;;;0.57;;
64225;SDS011;50545;56.064;26.178;2024-02-15T15:05:41;0.30;;;0.30;;
64225;SDS011;50545;56.064;26.178;2024-02-15T15:08:42;1.00;;;0.88;;
64225;SDS011;50545;56.064;26.178;2024-02-15T15:11:27;0.65;;;0.65;;
64225;SDS011;50545;56.064;26.178;2024-02-15T15:14:13;1.00;;;0.57;;
64225;SDS011;50545;56.064;26.178;2024-02-15T15:16:41;0.43;;;0.43;;
64225;SDS011;50545;56.064;26.178;2024-02-15T15:19:08;0.50;;;0.50;;
64225;SDS011;50545;56.064;26.178;2024-02-15T15:21:37;0.38;;;0.38;;
64225;SDS011;50545;56.064;26.178;2024-02-15T15:24:05;0.88;;;0.68;;
64225;SDS011;50545;56.064;26.178;2024-02-15T15:26:37;0.47;;;0.47;;